Time;durP1;ratioP1;P1;durP2;ratioP2;P2;SDS_P1;SDS_P2;PMS_P1;PMS_P2;Temp;Humidity;BMP_temperature;BMP_pressure;BME280_temperature;BME280_humidity;BME280_pressure;Samples;Min_cycle;Max_cycle;Signal;HPM_P1;HPM_P2
2021/11/10 00:01:34;;;;;;;9.50;8.60;;;10.50;99.90;;;;;;5122931;27;20221;-67
2021/11/10 00:04:01;;;;;;;10.73;9.68;;;10.50;99.90;;;;;;5125416;27;20218;-66
2021/11/10 00:06:28;;;;;;;11.43;10.02;;;10.50;99.90;;;;;;5118266;27;20219;-66
2021/11/10 00:08:55;;;;;;;11.25;10.25;;;10.50;99.90;;;;;;5132656;27;20229;-66
2021/11/10 00:11:23;;;;;;;16.60;14.65;;;10.50;99.90;;;;;;5126914;27;20233;-67
2021/11/10 00:13:51;;;;;;;10.07;9.07;;;10.40;99.90;;;;;;5129514;27;20214;-66
2021/11/10 00:16:19;;;;;;;10.27;9.30;;;10.40;99.90;;;;;;5125673;27;20676;-66
2021/11/10 00:18:47;;;;;;;9.35;8.50;;;10.50;99.90;;;;;;5126543;27;20215;-66
2021/11/10 00:21:16;;;;;;;10.57;9.50;;;10.50;99.90;;;;;;5122878;27;20221;-66
2021/11/10 00:23:43;;;;;;;9.73;8.70;;;10.40;99.90;;;;;;5126698;27;20688;-65
2021/11/10 00:26:10;;;;;;;12.07;9.05;;;10.40;99.90;;;;;;5124481;27;20255;-66
2021/11/10 00:28:37;;;;;;;13.18;11.88;;;10.40;99.90;;;;;;5126101;27;20211;-66
2021/11/10 00:31:06;;;;;;;15.45;13.88;;;10.40;99.90;;;;;;5123084;27;20316;-66
2021/11/10 00:33:33;;;;;;;14.60;12.90;;;10.40;99.90;;;;;;5120742;27;20225;-65
2021/11/10 00:36:00;;;;;;;12.95;11.82;;;10.40;99.90;;;;;;5134207;27;20267;-65
2021/11/10 00:38:27;;;;;;;11.65;10.45;;;10.40;99.90;;;;;;5126037;27;20222;-65
2021/11/10 00:40:55;;;;;;;11.40;10.20;;;10.40;99.90;;;;;;5133887;27;20217;-65
2021/11/10 00:43:22;;;;;;;11.70;9.05;;;10.40;99.90;;;;;;5133777;27;20230;-65
2021/11/10 00:45:50;;;;;;;11.05;9.65;;;10.30;99.90;;;;;;5133489;27;20703;-65
2021/11/10 00:48:19;;;;;;;11.43;10.27;;;10.30;99.90;;;;;;5134280;27;20214;-65
2021/11/10 00:50:46;;;;;;;9.98;8.98;;;10.30;99.90;;;;;;5132960;27;20234;-65
2021/11/10 00:53:13;;;;;;;12.50;11.20;;;10.30;99.90;;;;;;5134032;27;20222;-65
2021/11/10 00:55:41;;;;;;;11.50;9.82;;;10.30;99.90;;;;;;5133295;27;20233;-65
2021/11/10 00:58:10;;;;;;;13.38;10.93;;;10.20;99.90;;;;;;5132940;27;20303;-65
2021/11/10 01:00:37;;;;;;;10.95;9.95;;;10.20;99.90;;;;;;5131405;27;20244;-65
2021/11/10 01:03:05;;;;;;;10.88;9.55;;;10.20;99.90;;;;;;5126299;27;20587;-65
2021/11/10 01:05:34;;;;;;;11.18;10.05;;;10.20;99.90;;;;;;5133197;27;20225;-65
2021/11/10 01:08:01;;;;;;;17.25;12.65;;;10.20;99.90;;;;;;5133595;27;20228;-65
2021/11/10 01:10:29;;;;;;;16.85;14.55;;;10.20;99.90;;;;;;5133772;27;20225;-65
2021/11/10 01:12:56;;;;;;;15.68;14.07;;;10.20;99.90;;;;;;5133410;27;20226;-65
2021/11/10 01:15:23;;;;;;;14.75;12.23;;;10.10;99.90;;;;;;5130697;27;20576;-65
2021/11/10 01:17:50;;;;;;;11.90;10.82;;;10.10;99.90;;;;;;5133280;27;20226;-65
2021/11/10 01:20:18;;;;;;;14.45;11.27;;;10.10;99.90;;;;;;5133532;27;20247;-65
2021/11/10 01:22:46;;;;;;;11.43;10.23;;;10.10;99.90;;;;;;5133184;27;20606;-65
2021/11/10 01:25:14;;;;;;;13.75;9.90;;;10.10;99.90;;;;;;5133484;27;20229;-65
2021/11/10 01:27:41;;;;;;;12.10;10.40;;;10.10;99.90;;;;;;5130728;27;20573;-65
2021/11/10 01:30:10;;;;;;;14.43;10.55;;;10.10;99.90;;;;;;5133260;27;20228;-65
2021/11/10 01:32:40;;;;;;;11.32;10.23;;;10.00;99.90;;;;;;5130641;27;20233;-65
2021/11/10 01:35:08;;;;;;;12.13;9.45;;;10.00;99.90;;;;;;5133168;27;20568;-65
2021/11/10 01:37:35;;;;;;;10.93;9.82;;;10.00;99.90;;;;;;5124453;27;20222;-65
2021/11/10 01:40:04;;;;;;;10.25;9.32;;;9.90;99.90;;;;;;5133013;27;20249;-65
2021/11/10 01:42:31;;;;;;;10.90;9.63;;;9.90;99.90;;;;;;5133337;27;20222;-65
2021/11/10 01:44:59;;;;;;;12.52;10.68;;;9.90;99.90;;;;;;5132641;27;20249;-65
2021/11/10 01:47:26;;;;;;;11.38;9.82;;;9.90;99.90;;;;;;5133143;27;20226;-65
2021/11/10 01:49:53;;;;;;;13.50;10.25;;;9.90;99.90;;;;;;5125250;27;20299;-65
2021/11/10 01:52:21;;;;;;;11.30;10.10;;;9.90;99.90;;;;;;5132882;27;20233;-65
2021/11/10 01:54:48;;;;;;;12.65;11.05;;;9.80;99.90;;;;;;5127472;27;20215;-65
2021/11/10 01:57:16;;;;;;;14.25;10.82;;;9.80;99.90;;;;;;5130207;27;20226;-65
2021/11/10 01:59:48;;;;;;;11.57;10.45;;;9.80;99.90;;;;;;5132236;27;20241;-65
2021/11/10 02:02:21;;;;;;;12.57;10.77;;;9.80;99.90;;;;;;5118995;27;20223;-65
2021/11/10 02:04:50;;;;;;;16.48;12.80;;;9.70;99.90;;;;;;5131707;27;20250;-65
2021/11/10 02:07:17;;;;;;;13.80;11.07;;;9.70;99.90;;;;;;5131502;27;20560;-65
2021/11/10 02:09:46;;;;;;;13.10;11.82;;;9.70;99.90;;;;;;5130723;27;20239;-65
2021/11/10 02:12:13;;;;;;;13.10;11.85;;;9.70;99.90;;;;;;5131385;27;20218;-65
2021/11/10 02:14:42;;;;;;;13.90;12.30;;;9.60;99.90;;;;;;5130931;27;20229;-65
2021/11/10 02:17:14;;;;;;;12.95;11.65;;;9.60;99.90;;;;;;5131318;27;20291;-65
2021/11/10 02:19:41;;;;;;;14.65;11.68;;;9.60;99.90;;;;;;5130790;27;20317;-65
2021/11/10 02:22:10;;;;;;;11.38;10.27;;;9.60;99.90;;;;;;5133250;27;20230;-65
2021/11/10 02:24:38;;;;;;;11.38;10.23;;;9.60;99.90;;;;;;5132220;27;20722;-65
2021/11/10 02:27:14;;;;;;;13.80;10.57;;;9.60;99.90;;;;;;5132897;27;20242;-65
2021/11/10 02:29:41;;;;;;;14.30;11.77;;;9.60;99.90;;;;;;5121935;27;20301;-65
2021/11/10 02:32:10;;;;;;;14.60;13.20;;;9.60;99.90;;;;;;5131354;27;20241;-65
2021/11/10 02:34:45;;;;;;;19.90;16.25;;;9.50;99.90;;;;;;5129260;27;20283;-65
2021/11/10 02:37:15;;;;;;;13.98;12.65;;;9.50;99.90;;;;;;5129891;27;20266;-65
2021/11/10 02:39:46;;;;;;;15.07;13.60;;;9.50;99.90;;;;;;5129451;27;20234;-65
2021/11/10 02:42:17;;;;;;;16.05;12.52;;;9.50;99.90;;;;;;5129594;27;20313;-65
2021/11/10 02:44:47;;;;;;;13.85;12.35;;;9.50;99.90;;;;;;5129648;27;20241;-65
2021/11/10 02:47:14;;;;;;;15.43;12.00;;;9.50;99.90;;;;;;5132361;27;20218;-65
2021/11/10 02:49:41;;;;;;;16.33;12.23;;;9.40;99.90;;;;;;5133843;27;20225;-65
2021/11/10 02:52:11;;;;;;;17.17;12.48;;;9.40;99.90;;;;;;5134347;27;20226;-65
2021/11/10 02:54:43;;;;;;;13.57;12.30;;;9.40;99.90;;;;;;5134149;27;20217;-65
2021/11/10 02:57:10;;;;;;;12.57;11.05;;;9.40;99.90;;;;;;5132914;27;20221;-65
2021/11/10 02:59:37;;;;;;;14.15;11.05;;;9.40;99.90;;;;;;5133614;27;20275;-65
2021/11/10 03:02:05;;;;;;;12.00;10.80;;;9.30;99.90;;;;;;5133777;27;20222;-65
2021/11/10 03:04:35;;;;;;;12.40;10.32;;;9.30;99.90;;;;;;5133414;27;20275;-65
2021/11/10 03:07:03;;;;;;;16.02;11.90;;;9.30;99.90;;;;;;5134480;27;20737;-66
2021/11/10 03:09:32;;;;;;;13.15;11.85;;;9.30;99.90;;;;;;5136391;27;20229;-65
2021/11/10 03:12:02;;;;;;;11.90;10.68;;;9.30;99.90;;;;;;5135949;27;20602;-65
2021/11/10 03:14:31;;;;;;;11.57;10.57;;;9.30;99.90;;;;;;5136121;27;20237;-65
2021/11/10 03:16:59;;;;;;;10.98;9.98;;;9.30;99.90;;;;;;5135793;27;20222;-65
2021/11/10 03:19:26;;;;;;;13.48;10.15;;;9.30;99.90;;;;;;5136186;27;20234;-65
2021/11/10 03:21:53;;;;;;;13.30;9.63;;;9.30;99.90;;;;;;5135804;27;20222;-65
2021/11/10 03:24:20;;;;;;;9.85;8.95;;;9.30;99.90;;;;;;5135678;27;20222;-65
2021/11/10 03:26:47;;;;;;;9.10;8.20;;;9.30;99.90;;;;;;5135914;27;20339;-65
2021/11/10 03:29:16;;;;;;;10.60;9.02;;;9.20;99.90;;;;;;5135615;27;20222;-65
2021/11/10 03:31:43;;;;;;;10.35;9.25;;;9.20;99.90;;;;;;5135964;27;20229;-65
2021/11/10 03:34:12;;;;;;;10.93;8.98;;;9.20;99.90;;;;;;5135321;27;20226;-65
2021/11/10 03:36:39;;;;;;;12.60;10.05;;;9.10;99.90;;;;;;5135982;27;20226;-65
2021/11/10 03:39:09;;;;;;;11.05;9.95;;;9.10;99.90;;;;;;5131869;27;20703;-65
2021/11/10 03:41:36;;;;;;;11.35;10.15;;;9.00;99.90;;;;;;5135711;27;20345;-65
2021/11/10 03:44:04;;;;;;;12.70;11.50;;;9.00;99.90;;;;;;5135381;27;20282;-65
2021/11/10 03:46:32;;;;;;;11.00;9.90;;;9.00;99.90;;;;;;5135511;27;20290;-65
2021/11/10 03:49:00;;;;;;;11.05;9.95;;;9.00;99.90;;;;;;5134626;27;20590;-65
2021/11/10 03:51:31;;;;;;;13.25;12.05;;;8.90;99.90;;;;;;5135497;27;20229;-65
2021/11/10 03:53:58;;;;;;;13.25;12.05;;;8.90;99.90;;;;;;5134985;27;20237;-65
2021/11/10 03:56:25;;;;;;;12.88;10.65;;;8.80;99.90;;;;;;5135306;27;20222;-65
2021/11/10 03:58:52;;;;;;;10.52;9.48;;;8.80;99.90;;;;;;5134447;27;20304;-65
2021/11/10 04:01:19;;;;;;;11.45;9.75;;;8.80;99.90;;;;;;5135319;27;20226;-65
2021/11/10 04:03:47;;;;;;;12.07;10.88;;;8.80;99.90;;;;;;5135022;27;20233;-65
2021/11/10 04:06:15;;;;;;;11.05;9.95;;;8.80;99.90;;;;;;5134677;27;20222;-65
2021/11/10 04:08:42;;;;;;;15.90;10.95;;;8.70;99.90;;;;;;5134956;27;20221;-65
2021/11/10 04:11:09;;;;;;;11.52;10.38;;;8.80;99.90;;;;;;5134817;27;20222;-65
2021/11/10 04:13:36;;;;;;;11.73;10.07;;;8.80;99.90;;;;;;5135001;27;20274;-65
2021/11/10 04:16:04;;;;;;;11.15;9.27;;;8.80;99.90;;;;;;5134818;27;20229;-65
2021/11/10 04:18:35;;;;;;;11.05;9.98;;;8.80;99.90;;;;;;5134801;27;20226;-65
2021/11/10 04:21:05;;;;;;;15.32;11.05;;;8.80;99.90;;;;;;5134173;27;20583;-65
2021/11/10 04:23:34;;;;;;;11.00;9.90;;;8.80;99.90;;;;;;5134852;27;20228;-65
2021/11/10 04:26:03;;;;;;;14.93;11.75;;;8.80;99.90;;;;;;5134252;27;20303;-65
2021/11/10 04:28:30;;;;;;;14.00;11.15;;;8.80;99.90;;;;;;5134865;27;20275;-65
2021/11/10 04:30:57;;;;;;;11.25;10.15;;;8.80;99.90;;;;;;5134225;27;20256;-65
2021/11/10 04:33:24;;;;;;;11.48;10.35;;;8.80;99.90;;;;;;5134640;27;20222;-65
2021/11/10 04:35:51;;;;;;;11.38;10.18;;;8.80;99.90;;;;;;5134618;27;20309;-65
2021/11/10 04:38:20;;;;;;;16.20;10.63;;;8.80;99.90;;;;;;5134038;27;20236;-65
2021/11/10 04:40:47;;;;;;;12.52;11.18;;;8.80;99.90;;;;;;5134163;27;20236;-65
2021/11/10 04:43:14;;;;;;;10.80;9.73;;;8.80;99.90;;;;;;5133973;27;20326;-65
2021/11/10 04:45:43;;;;;;;12.82;9.80;;;8.70;99.90;;;;;;5134621;27;20270;-65
2021/11/10 04:48:10;;;;;;;13.02;10.75;;;8.80;99.90;;;;;;5133794;27;20232;-65
2021/11/10 04:50:38;;;;;;;12.25;10.93;;;8.80;99.90;;;;;;5134093;27;20241;-66
2021/11/10 04:53:06;;;;;;;13.15;10.50;;;8.70;99.90;;;;;;5133950;27;20230;-65
2021/11/10 04:55:35;;;;;;;11.18;10.07;;;8.70;99.90;;;;;;5134411;27;20248;-65
2021/11/10 04:58:01;;;;;;;13.05;10.98;;;8.70;99.90;;;;;;5133718;27;20226;-65
2021/11/10 05:00:28;;;;;;;13.02;11.45;;;8.70;99.90;;;;;;5133692;27;20306;-65
2021/11/10 05:02:55;;;;;;;14.55;12.25;;;8.70;99.90;;;;;;5133591;27;20232;-65
2021/11/10 05:05:22;;;;;;;12.20;10.98;;;8.70;99.90;;;;;;5134115;27;20237;-65
2021/11/10 05:07:50;;;;;;;13.02;10.85;;;8.80;99.90;;;;;;5133726;27;20693;-65
2021/11/10 05:10:18;;;;;;;19.73;13.55;;;8.70;99.90;;;;;;5132186;27;20621;-65
2021/11/10 05:12:47;;;;;;;12.63;11.30;;;8.70;99.90;;;;;;5132747;27;20229;-65
2021/11/10 05:15:14;;;;;;;13.60;11.00;;;8.70;99.90;;;;;;5133859;27;20617;-65
2021/11/10 05:17:41;;;;;;;14.10;10.65;;;8.70;99.90;;;;;;5134399;27;20241;-65
2021/11/10 05:20:09;;;;;;;11.43;10.23;;;8.80;99.90;;;;;;5133594;27;20218;-65
2021/11/10 05:22:36;;;;;;;12.27;11.02;;;8.70;99.90;;;;;;5134160;27;20222;-65
2021/11/10 05:25:03;;;;;;;17.70;11.75;;;8.70;99.90;;;;;;5133415;27;20225;-65
2021/11/10 05:27:30;;;;;;;13.23;11.77;;;8.60;99.90;;;;;;5133945;27;20244;-65
2021/11/10 05:29:59;;;;;;;14.13;12.40;;;8.60;99.90;;;;;;5133397;27;20218;-65
2021/11/10 05:32:26;;;;;;;13.57;12.38;;;8.60;99.90;;;;;;5133973;27;20540;-65
2021/11/10 05:34:58;;;;;;;12.18;10.38;;;8.60;99.90;;;;;;5133917;27;20609;-65
2021/11/10 05:37:25;;;;;;;10.95;9.95;;;8.60;99.90;;;;;;5133811;27;20294;-65
2021/11/10 05:39:52;;;;;;;12.32;10.88;;;8.60;99.90;;;;;;5133701;27;20221;-65
2021/11/10 05:42:19;;;;;;;19.48;11.82;;;8.60;99.90;;;;;;5133335;27;20226;-65
2021/11/10 05:44:46;;;;;;;12.75;10.57;;;8.60;99.90;;;;;;5134001;27;20683;-65
2021/11/10 05:47:15;;;;;;;16.80;13.77;;;8.60;99.90;;;;;;5133213;27;20563;-65
2021/11/10 05:49:41;;;;;;;11.75;10.60;;;8.60;99.90;;;;;;5133838;27;20221;-66
2021/11/10 05:52:09;;;;;;;12.77;11.18;;;8.60;99.90;;;;;;5133251;27;20217;-65
2021/11/10 05:54:38;;;;;;;11.40;10.25;;;8.70;99.90;;;;;;5133563;27;20222;-65
2021/11/10 05:57:07;;;;;;;15.48;12.23;;;8.70;99.90;;;;;;5133431;27;20334;-65
2021/11/10 05:59:35;;;;;;;11.98;10.73;;;8.70;99.90;;;;;;5133304;27;20222;-65
2021/11/10 06:02:02;;;;;;;12.18;10.98;;;8.70;99.90;;;;;;5133702;27;20327;-65
2021/11/10 06:04:30;;;;;;;15.27;11.60;;;8.60;99.90;;;;;;5133416;27;20217;-65
2021/11/10 06:06:57;;;;;;;13.50;11.40;;;8.60;99.90;;;;;;5133449;27;20214;-65
2021/11/10 06:09:24;;;;;;;14.88;13.10;;;8.60;99.90;;;;;;5133071;27;21801;-65
2021/11/10 06:11:51;;;;;;;14.13;11.95;;;8.60;99.90;;;;;;5133517;27;20228;-66
2021/11/10 06:14:18;;;;;;;11.65;10.55;;;8.60;99.90;;;;;;5133174;27;20287;-65
2021/11/10 06:16:45;;;;;;;18.27;12.85;;;8.60;99.90;;;;;;5133463;27;20229;-65
2021/11/10 06:19:12;;;;;;;12.93;10.80;;;8.60;99.90;;;;;;5133019;27;20590;-65
2021/11/10 06:21:40;;;;;;;15.27;11.20;;;8.60;99.90;;;;;;5136090;27;20225;-66
2021/11/10 06:24:07;;;;;;;15.15;11.40;;;8.60;99.90;;;;;;5137146;27;20282;-65
2021/11/10 06:26:34;;;;;;;14.55;11.00;;;8.60;99.90;;;;;;5137374;27;20229;-65
2021/11/10 06:29:01;;;;;;;13.55;12.10;;;8.60;99.90;;;;;;5137188;27;20222;-65
2021/11/10 06:31:28;;;;;;;16.13;13.55;;;8.60;99.90;;;;;;5136685;27;20228;-65
2021/11/10 06:33:55;;;;;;;18.30;13.00;;;8.60;99.90;;;;;;5137327;27;20237;-65
2021/11/10 06:36:22;;;;;;;13.88;12.35;;;8.60;99.90;;;;;;5136732;27;20252;-65
2021/11/10 06:38:50;;;;;;;16.85;13.15;;;8.60;99.90;;;;;;5137130;27;20222;-65
2021/11/10 06:41:19;;;;;;;18.80;14.38;;;8.60;99.90;;;;;;5136813;27;20226;-65
2021/11/10 06:43:47;;;;;;;21.10;12.80;;;8.60;99.90;;;;;;5136945;27;20256;-65
2021/11/10 06:46:14;;;;;;;19.90;13.25;;;8.60;99.90;;;;;;5136634;27;20222;-65
2021/11/10 06:48:41;;;;;;;17.60;12.43;;;8.60;99.90;;;;;;5137028;27;20301;-65
2021/11/10 06:51:08;;;;;;;14.73;13.25;;;8.60;99.90;;;;;;5136510;27;20213;-65
2021/11/10 06:53:36;;;;;;;15.13;13.57;;;8.60;99.90;;;;;;5136838;27;20244;-65
2021/11/10 06:56:05;;;;;;;18.67;15.40;;;8.60;99.90;;;;;;5136862;27;20213;-65
2021/11/10 06:58:32;;;;;;;17.05;13.80;;;8.60;99.90;;;;;;5136310;27;20229;-65
2021/11/10 07:00:59;;;;;;;17.17;12.30;;;8.60;99.90;;;;;;5136375;27;20217;-65
2021/11/10 07:03:26;;;;;;;23.92;15.15;;;8.70;99.90;;;;;;5136309;27;20221;-65
2021/11/10 07:05:53;;;;;;;13.27;11.52;;;8.70;99.90;;;;;;5136578;27;20690;-65
2021/11/10 07:08:20;;;;;;;18.42;13.38;;;8.70;99.90;;;;;;5136146;27;20282;-65
2021/11/10 07:10:47;;;;;;;13.68;12.27;;;8.70;99.90;;;;;;5136398;27;20616;-65
2021/11/10 07:13:15;;;;;;;20.33;13.50;;;8.70;99.90;;;;;;5136024;27;20271;-65
2021/11/10 07:15:42;;;;;;;17.52;13.32;;;8.70;99.90;;;;;;5136669;27;20743;-65
2021/11/10 07:18:09;;;;;;;15.10;13.50;;;8.70;99.90;;;;;;5136395;27;20271;-65
2021/11/10 07:20:36;;;;;;;14.88;13.38;;;8.80;99.90;;;;;;5135656;27;20230;-65
2021/11/10 07:23:03;;;;;;;15.95;14.25;;;8.80;99.90;;;;;;5136421;27;20241;-65
2021/11/10 07:25:31;;;;;;;19.77;13.80;;;8.80;99.90;;;;;;5135681;27;20233;-65
2021/11/10 07:27:58;;;;;;;16.15;14.43;;;8.80;99.90;;;;;;5136064;27;20238;-65
2021/11/10 07:30:26;;;;;;;22.33;14.77;;;8.90;99.90;;;;;;5135921;27;20230;-65
2021/11/10 07:32:53;;;;;;;17.88;13.98;;;8.90;99.90;;;;;;5135309;27;20698;-65
2021/11/10 07:35:20;;;;;;;18.95;14.68;;;8.90;99.90;;;;;;5135688;27;20222;-66
2021/11/10 07:37:48;;;;;;;27.15;20.33;;;8.90;99.90;;;;;;5136191;27;20218;-65
2021/11/10 07:40:16;;;;;;;23.05;16.80;;;8.90;99.90;;;;;;5135270;27;20230;-65
2021/11/10 07:42:44;;;;;;;20.80;17.95;;;9.00;99.90;;;;;;5136086;27;20230;-66
2021/11/10 07:45:15;;;;;;;21.40;17.35;;;9.00;99.90;;;;;;5135906;27;20237;-65
2021/11/10 07:47:46;;;;;;;18.15;16.25;;;9.00;99.90;;;;;;5135494;27;20975;-65
2021/11/10 07:50:16;;;;;;;19.42;15.43;;;9.00;99.90;;;;;;5135641;27;20226;-65
2021/11/10 07:52:43;;;;;;;21.17;16.77;;;9.00;99.90;;;;;;5135690;27;20225;-65
2021/11/10 07:55:11;;;;;;;26.05;19.63;;;9.00;99.90;;;;;;5135472;27;20214;-65
2021/11/10 07:57:38;;;;;;;20.15;17.27;;;9.00;99.90;;;;;;5135008;27;20559;-65
2021/11/10 08:00:09;;;;;;;14.77;13.30;;;9.00;99.90;;;;;;5135312;27;20225;-65
2021/11/10 08:02:36;;;;;;;17.50;13.85;;;9.00;99.90;;;;;;5135189;27;20237;-65
2021/11/10 08:05:06;;;;;;;19.83;15.63;;;9.00;99.90;;;;;;5135460;27;20218;-66
2021/11/10 08:07:33;;;;;;;23.10;18.00;;;9.00;99.90;;;;;;5135056;27;20218;-65
2021/11/10 08:10:00;;;;;;;17.02;15.15;;;9.00;99.90;;;;;;5135247;27;20218;-65
2021/11/10 08:12:27;;;;;;;16.75;14.63;;;9.00;99.90;;;;;;5134846;27;20601;-65
2021/11/10 08:14:54;;;;;;;15.82;13.80;;;8.90;99.90;;;;;;5135448;27;20545;-65
2021/11/10 08:17:21;;;;;;;17.40;14.77;;;9.00;99.90;;;;;;5134696;27;20213;-65
2021/11/10 08:19:48;;;;;;;18.27;15.70;;;9.00;99.90;;;;;;5135356;27;20234;-65
2021/11/10 08:22:16;;;;;;;18.73;13.40;;;9.10;99.90;;;;;;5135024;27;20226;-65
2021/11/10 08:24:45;;;;;;;14.75;13.25;;;9.10;99.90;;;;;;5134677;27;20233;-65
2021/11/10 08:27:12;;;;;;;21.65;15.45;;;9.20;99.90;;;;;;5134705;27;20242;-65
2021/11/10 08:29:39;;;;;;;15.27;13.68;;;9.20;99.90;;;;;;5134551;27;20626;-65
2021/11/10 08:32:07;;;;;;;21.13;14.48;;;9.20;99.90;;;;;;5134998;27;20214;-65
2021/11/10 08:34:34;;;;;;;20.15;15.75;;;9.20;99.90;;;;;;5134482;27;20246;-65
2021/11/10 08:37:01;;;;;;;16.83;13.55;;;9.20;99.90;;;;;;5134982;27;20350;-65
2021/11/10 08:39:30;;;;;;;16.30;13.20;;;9.20;99.90;;;;;;5133915;27;20238;-65
2021/11/10 08:41:57;;;;;;;15.50;13.40;;;9.30;99.90;;;;;;5134727;27;20672;-65
2021/11/10 08:44:24;;;;;;;19.50;14.73;;;9.40;99.90;;;;;;5133327;27;20222;-65
2021/11/10 08:46:51;;;;;;;18.83;14.15;;;9.40;99.90;;;;;;5134438;27;20221;-65
2021/11/10 08:49:18;;;;;;;20.45;15.18;;;9.50;99.90;;;;;;5134680;27;20759;-64
2021/11/10 08:51:45;;;;;;;18.63;14.18;;;9.50;99.90;;;;;;5134168;27;20225;-65
2021/11/10 08:54:12;;;;;;;20.88;14.50;;;9.60;99.90;;;;;;5134353;27;20610;-65
2021/11/10 08:56:40;;;;;;;17.08;14.57;;;9.60;99.90;;;;;;5134048;27;20695;-65
2021/11/10 08:59:07;;;;;;;18.27;13.98;;;9.60;99.90;;;;;;5134409;27;20225;-65
2021/11/10 09:01:37;;;;;;;16.38;14.82;;;9.70;99.90;;;;;;5133609;27;20232;-65
2021/11/10 09:04:04;;;;;;;16.42;14.45;;;9.70;99.90;;;;;;5134430;27;20218;-65
2021/11/10 09:06:32;;;;;;;16.25;14.32;;;9.80;99.90;;;;;;5133772;27;20304;-65
2021/11/10 09:08:59;;;;;;;17.17;13.98;;;9.80;99.90;;;;;;5134039;27;20226;-65
2021/11/10 09:11:26;;;;;;;16.60;14.63;;;9.80;99.90;;;;;;5133991;27;20228;-65
2021/11/10 09:13:54;;;;;;;16.48;14.50;;;9.90;99.90;;;;;;5133996;27;20241;-65
2021/11/10 09:16:21;;;;;;;18.58;14.77;;;9.90;99.90;;;;;;5134053;27;20241;-65
2021/11/10 09:18:48;;;;;;;16.60;13.50;;;9.90;99.90;;;;;;5133791;27;20236;-65
2021/11/10 09:21:15;;;;;;;19.02;14.30;;;9.90;99.90;;;;;;5133933;27;20677;-65
2021/11/10 09:23:42;;;;;;;16.92;13.07;;;10.00;99.90;;;;;;5133451;27;20225;-64
2021/11/10 09:26:09;;;;;;;16.42;14.32;;;10.00;99.90;;;;;;5133862;27;20233;-65
2021/11/10 09:28:36;;;;;;;15.05;13.55;;;10.10;99.90;;;;;;5133527;27;20226;-65
2021/11/10 09:31:05;;;;;;;15.65;13.93;;;10.10;99.90;;;;;;5133871;27;20229;-65
2021/11/10 09:33:35;;;;;;;17.17;13.88;;;10.20;99.90;;;;;;5133624;27;20726;-65
2021/11/10 09:36:04;;;;;;;15.70;12.60;;;10.20;99.90;;;;;;5133825;27;20218;-65
2021/11/10 09:38:31;;;;;;;14.35;12.80;;;10.30;99.90;;;;;;5133119;27;20232;-65
2021/11/10 09:41:00;;;;;;;17.38;13.68;;;10.30;99.90;;;;;;5133712;27;20222;-65
2021/11/10 09:43:32;;;;;;;15.90;14.10;;;10.40;99.90;;;;;;5133368;27;20218;-65
2021/11/10 09:46:01;;;;;;;16.60;12.73;;;10.40;99.90;;;;;;5133789;27;20229;-65
2021/11/10 09:48:30;;;;;;;16.55;14.05;;;10.50;99.90;;;;;;5133357;27;20277;-65
2021/11/10 09:50:58;;;;;;;13.70;12.30;;;10.50;99.90;;;;;;5133607;27;20283;-64
2021/11/10 09:53:25;;;;;;;15.15;13.57;;;10.60;99.90;;;;;;5133523;27;20232;-65
2021/11/10 09:55:55;;;;;;;14.07;12.57;;;10.60;99.90;;;;;;5134899;27;20233;-65
2021/11/10 09:58:22;;;;;;;16.33;13.68;;;10.70;99.90;;;;;;5137780;27;20283;-65
2021/11/10 10:00:52;;;;;;;15.18;13.57;;;10.70;99.90;;;;;;5137259;27;20686;-65
2021/11/10 10:03:20;;;;;;;15.02;11.98;;;10.80;99.90;;;;;;5137811;27;20710;-65
2021/11/10 10:05:50;;;;;;;14.70;13.20;;;10.80;99.90;;;;;;5137302;27;20221;-65
2021/11/10 10:08:18;;;;;;;14.57;12.90;;;10.90;99.90;;;;;;5137601;27;20687;-64
2021/11/10 10:10:46;;;;;;;14.27;11.65;;;10.90;99.90;;;;;;5137339;27;20225;-65
2021/11/10 10:13:14;;;;;;;15.75;12.75;;;11.00;99.90;;;;;;5137672;27;20241;-64
2021/11/10 10:15:43;;;;;;;13.88;12.38;;;11.00;99.90;;;;;;5137068;27;20667;-65
2021/11/10 10:18:16;;;;;;;13.60;12.20;;;11.00;99.60;;;;;;5137803;27;20722;-64
2021/11/10 10:20:43;;;;;;;14.18;12.45;;;11.10;99.70;;;;;;5137027;27;20221;-64
2021/11/10 10:23:14;;;;;;;12.75;11.55;;;11.20;99.60;;;;;;5137291;27;20229;-64
2021/11/10 10:25:44;;;;;;;13.13;11.88;;;11.20;99.60;;;;;;5136743;27;20605;-65
2021/11/10 10:28:14;;;;;;;13.10;11.43;;;11.20;99.60;;;;;;5137600;27;20293;-65
2021/11/10 10:30:43;;;;;;;12.80;11.50;;;11.20;99.50;;;;;;5136843;27;20230;-65
2021/11/10 10:33:13;;;;;;;13.35;12.00;;;11.30;99.50;;;;;;5137232;27;20353;-65
2021/11/10 10:35:43;;;;;;;14.30;11.70;;;11.30;99.20;;;;;;5136956;27;20225;-66
2021/11/10 10:38:15;;;;;;;11.82;10.63;;;11.40;99.20;;;;;;5136913;27;20221;-65
2021/11/10 10:40:45;;;;;;;13.20;9.70;;;11.50;99.20;;;;;;5136511;27;20558;-66
2021/11/10 10:43:13;;;;;;;10.40;9.40;;;11.50;99.10;;;;;;5136968;27;20234;-65
2021/11/10 10:45:42;;;;;;;11.75;10.15;;;11.60;99.10;;;;;;5136612;27;20293;-65
2021/11/10 10:48:12;;;;;;;13.77;11.13;;;11.60;99.00;;;;;;5136938;27;20210;-65
2021/11/10 10:50:41;;;;;;;10.60;9.60;;;11.70;99.00;;;;;;5136582;27;20606;-65
2021/11/10 10:53:10;;;;;;;13.25;10.90;;;11.70;99.00;;;;;;5136921;27;20226;-65
2021/11/10 10:55:41;;;;;;;16.25;14.05;;;11.70;98.60;;;;;;5116927;27;20308;-65
2021/11/10 10:58:10;;;;;;;20.05;16.60;;;11.70;98.60;;;;;;5120362;27;20772;-65
2021/11/10 11:00:39;;;;;;;17.30;15.45;;;11.70;97.80;;;;;;5125048;27;20230;-66
2021/11/10 11:03:29;;;;;;;17.15;14.50;;;11.70;97.80;;;;;;5134031;27;20229;-65
2021/11/10 11:06:00;;;;;;;13.43;12.27;;;11.80;97.70;;;;;;5134114;27;20240;-66
2021/11/10 11:08:33;;;;;;;13.55;11.20;;;11.80;97.70;;;;;;5132975;27;20574;-66
2021/11/10 11:11:16;;;;;;;12.93;10.07;;;11.90;97.60;;;;;;5133815;27;20222;-65
2021/11/10 11:13:44;;;;;;;10.90;9.77;;;12.00;97.60;;;;;;5133759;27;20298;-65
2021/11/10 11:16:12;;;;;;;16.20;14.73;;;12.00;97.60;;;;;;5135295;27;20229;-65
2021/11/10 11:18:39;;;;;;;21.35;18.77;;;12.10;97.50;;;;;;5136082;27;20229;-66
2021/11/10 11:21:20;;;;;;;26.38;21.00;;;12.10;97.20;;;;;;5136333;27;20229;-66
2021/11/10 11:23:47;;;;;;;19.98;18.00;;;12.10;97.00;;;;;;5135780;27;20228;-65
2021/11/10 11:26:35;;;;;;;17.23;15.10;;;12.20;97.10;;;;;;5135981;27;20234;-66
2021/11/10 11:29:21;;;;;;;16.30;14.77;;;12.20;97.10;;;;;;5135898;27;20317;-65
2021/11/10 11:31:48;;;;;;;18.02;15.40;;;12.20;97.10;;;;;;5135746;27;20238;-65
2021/11/10 11:34:15;;;;;;;16.73;14.93;;;12.20;96.80;;;;;;5136033;27;20604;-65
2021/11/10 11:36:54;;;;;;;15.48;13.40;;;12.20;96.80;;;;;;5135801;27;20687;-65
2021/11/10 11:39:23;;;;;;;16.63;12.68;;;12.30;96.90;;;;;;5124219;27;20704;-65
2021/11/10 11:41:52;;;;;;;13.88;12.57;;;12.30;96.90;;;;;;5114876;27;20226;-65
2021/11/10 11:44:21;;;;;;;17.40;12.95;;;12.30;96.70;;;;;;5115418;27;20230;-65
2021/11/10 11:46:49;;;;;;;15.85;11.20;;;12.30;96.60;;;;;;5114887;27;20222;-66
2021/11/10 11:49:17;;;;;;;16.83;13.40;;;12.30;96.60;;;;;;5114897;27;20222;-65
2021/11/10 11:51:46;;;;;;;17.13;13.85;;;12.30;96.60;;;;;;5114808;27;20222;-65
2021/11/10 11:54:15;;;;;;;17.77;14.82;;;12.30;96.60;;;;;;5115313;27;20680;-65
2021/11/10 11:56:44;;;;;;;15.70;14.10;;;12.40;96.60;;;;;;5116254;27;20214;-65
2021/11/10 11:59:15;;;;;;;16.02;14.52;;;12.40;96.70;;;;;;5135308;27;20222;-65
2021/11/10 12:01:42;;;;;;;19.55;17.42;;;12.40;96.70;;;;;;5135051;27;20218;-66
2021/11/10 12:04:12;;;;;;;23.65;15.07;;;12.40;96.70;;;;;;5135178;27;20647;-66
2021/11/10 12:06:50;;;;;;;15.50;13.57;;;12.40;96.80;;;;;;5135430;27;20676;-65
2021/11/10 12:09:18;;;;;;;20.02;14.25;;;12.40;96.80;;;;;;5135782;27;20230;-65
2021/11/10 12:11:50;;;;;;;22.02;16.13;;;12.40;97.20;;;;;;5134965;27;20218;-66
2021/11/10 12:14:21;;;;;;;15.07;13.48;;;12.40;96.80;;;;;;5135088;27;20612;-66
2021/11/10 12:16:55;;;;;;;15.80;13.95;;;12.40;97.00;;;;;;5125861;27;20957;-65
2021/11/10 12:19:28;;;;;;;40.10;25.67;;;12.40;97.10;;;;;;5131431;27;20575;-66
2021/11/10 12:21:57;;;;;;;33.30;24.08;;;12.40;97.20;;;;;;5113949;27;20934;-65
2021/11/10 12:24:29;;;;;;;21.67;18.55;;;12.40;97.10;;;;;;5119870;27;20221;-66
2021/11/10 12:27:14;;;;;;;22.45;18.70;;;12.40;97.30;;;;;;5134659;27;20895;-65
2021/11/10 12:29:57;;;;;;;27.25;24.35;;;12.40;97.40;;;;;;5134513;27;20286;-66
2021/11/10 12:32:27;;;;;;;40.58;35.58;;;12.40;97.40;;;;;;5133665;27;20306;-66
2021/11/10 12:34:56;;;;;;;28.27;25.33;;;12.40;97.40;;;;;;5113566;27;20233;-66
2021/11/10 12:37:29;;;;;;;19.20;17.05;;;12.50;97.50;;;;;;5114122;27;20222;-66
2021/11/10 12:40:15;;;;;;;20.35;15.60;;;12.40;97.40;;;;;;5129999;27;20222;-63
2021/11/10 12:42:48;;;;;;;18.17;13.60;;;12.30;97.20;;;;;;5134186;27;20233;-64